首页
METAR-TAF:

METAR-TAF

机场 :

邁亞密國際機場

迈阿密, 佛罗里达州, 美国

纬度: 25-47-26N, 经度: 080-18-59W, 海拔: 3米

当前天气观测

该预报发布于1小时和8分钟前的09:53 UTC
静风
温度 21°C
湿度 73%
气压 1017 hPa
能見度: 16.1公里
散云层高于3600英尺
散云层高于4600英尺

METAR: KMIA 240953Z 00000KT 10SM SCT036 SCT046 21/16 A3002 RMK AO2 SLP164 T02110156

时间: 07:01 (11:01 UTC)

预报

该预报发布于1小时和54分钟前的09:07 UTC
预报有效从24日的 09点(UTC)到 25日的 12点(UTC)
风速5节,风向多变
能見度: 10公里
少量云层高于3500英尺
从 24日的 1400点(UTC)
风速10节,风向
能見度: 10公里
散云层高于4000英尺
从 25日的 0000点(UTC)
风速5节,风向东转东南
能見度: 10公里
少量云层高于4000英尺

TAF: KMIA 240907Z 2409/2512 VRB05KT P6SM FEW035 FM241400 09010KT P6SM SCT040 FM250000 11005KT P6SM FEW040

超过4000个机场的气象观测和天气预报(METAR&TAF报告)。

可查询的气象台以黄色和红色小点在地图上表示。

将鼠标移到小点上方,可查看气象台名称。

然后点击查看天气观测和预报。

如需切换地图:点击带黑十字的绿色按钮放大地图;点击带横线的绿色按钮缩小地图;或者点击绿色箭头查看邻近地区的地图。


METAR-TAF: